Time;durP1;ratioP1;P1;durP2;ratioP2;P2;SDS_P1;SDS_P2;PMS_P1;PMS_P2;Temp;Humidity;BMP_temperature;BMP_pressure;BME280_temperature;BME280_humidity;BME280_pressure;Samples;Min_cycle;Max_cycle;Signal;HPM_P1;HPM_P2
2022/08/02 00:03:36;;;;;;;5.32;2.92;;;;;;;16.10;62.36;100755.31;10199309;29;20067;-78
2022/08/02 00:08:40;;;;;;;7.22;2.90;;;;;;;16.07;62.39;100758.34;10182567;29;20080;-78
2022/08/02 00:13:42;;;;;;;10.23;3.88;;;;;;;16.07;62.29;100754.75;10184687;29;20044;-78
2022/08/02 00:18:47;;;;;;;10.13;3.17;;;;;;;15.96;62.13;100747.69;10182236;29;20111;-78
2022/08/02 00:23:50;;;;;;;8.05;3.10;;;;;;;15.93;62.60;100739.84;10196550;29;20502;-76
2022/08/02 00:29:13;;;;;;;8.00;3.45;;;;;;;15.85;62.45;100726.22;10181724;29;20116;-79
2022/08/02 00:34:17;;;;;;;8.15;3.67;;;;;;;15.76;62.69;100736.09;10188132;29;20134;-78
2022/08/02 00:39:32;;;;;;;9.70;3.10;;;;;;;15.68;62.65;100736.84;10187151;29;20088;-78
2022/08/02 00:44:37;;;;;;;7.32;4.00;;;;;;;15.63;63.22;100733.75;10207164;29;20067;-79
2022/08/02 00:49:41;;;;;;;7.18;3.55;;;;;;;15.45;63.20;100739.06;10193250;29;20044;-79
2022/08/02 00:54:44;;;;;;;11.10;3.35;;;;;;;15.39;63.80;100739.69;10190792;29;20048;-78
2022/08/02 00:59:47;;;;;;;8.82;3.35;;;;;;;14.99;65.10;100740.72;10188120;29;20119;-79
2022/08/02 01:04:52;;;;;;;9.32;3.97;;;;;;;14.88;65.56;100742.72;10201604;29;20080;-78
2022/08/02 01:09:55;;;;;;;12.80;3.25;;;;;;;14.90;65.92;100748.84;10186781;29;20140;-78
2022/08/02 01:15:00;;;;;;;5.75;3.80;;;;;;;14.96;65.91;100745.56;10203316;29;20521;-78
2022/08/02 01:20:16;;;;;;;7.85;3.55;;;;;;;14.82;65.61;100742.28;10190931;29;20119;-78
2022/08/02 01:25:53;;;;;;;8.25;3.60;;;;;;;14.83;65.82;100744.00;10186153;29;20113;-78
2022/08/02 01:31:01;;;;;;;11.82;3.80;;;;;;;14.49;66.56;100737.31;10178154;29;20056;-78
2022/08/02 01:36:07;;;;;;;8.13;3.42;;;;;;;14.43;67.30;100743.31;10188108;29;20051;-78
2022/08/02 01:41:16;;;;;;;7.15;3.50;;;;;;;14.46;67.20;100745.72;10189076;29;20048;-79
2022/08/02 01:46:21;;;;;;;10.80;3.53;;;;;;;14.32;67.67;100744.25;10204090;29;20048;-78
2022/08/02 01:56:45;;;;;;;7.93;3.55;;;;;;;14.44;67.28;100743.16;10198853;29;20048;-78
2022/08/02 02:01:52;;;;;;;9.02;3.50;;;;;;;14.48;67.05;100741.00;10180928;29;20048;-77
2022/08/02 02:06:56;;;;;;;9.40;4.03;;;;;;;14.41;67.32;100740.72;10180340;29;20048;-77
2022/08/02 02:12:00;;;;;;;12.18;4.22;;;;;;;14.48;67.35;100735.59;10180870;29;20052;-77
2022/08/02 02:17:18;;;;;;;8.68;4.15;;;;;;;14.43;67.15;100725.22;10180222;29;20052;-78
2022/08/02 02:22:41;;;;;;;10.75;3.75;;;;;;;14.41;67.16;100723.66;10185298;29;20048;-77
2022/08/02 02:27:51;;;;;;;5.90;3.63;;;;;;;14.49;67.11;100723.81;10173328;29;20048;-77
2022/08/02 02:32:59;;;;;;;9.35;3.67;;;;;;;14.48;67.04;100709.44;10161222;29;20060;-77
2022/08/02 02:38:06;;;;;;;6.70;3.83;;;;;;;14.40;67.16;100703.91;10182511;29;20063;-78
2022/08/02 02:43:11;;;;;;;8.00;4.00;;;;;;;14.39;67.04;100696.75;10183103;29;20044;-78
2022/08/02 02:48:17;;;;;;;10.45;4.15;;;;;;;14.37;67.10;100690.63;10171186;29;20063;-78
2022/08/02 02:53:22;;;;;;;6.90;4.57;;;;;;;14.32;67.17;100692.91;10181840;29;20044;-78
2022/08/02 02:58:25;;;;;;;7.97;4.15;;;;;;;14.33;67.15;100689.19;10184129;29;20028;-77
2022/08/02 03:03:33;;;;;;;8.55;3.97;;;;;;;14.33;67.09;100691.91;10172071;29;20080;-78
2022/08/02 03:08:36;;;;;;;4.85;3.72;;;;;;;14.23;67.60;100685.63;10179695;29;20048;-78
2022/08/02 03:13:40;;;;;;;10.95;4.30;;;;;;;14.19;67.79;100685.06;10180163;29;20470;-78
2022/08/02 03:18:44;;;;;;;8.30;3.92;;;;;;;14.26;67.89;100699.72;10180659;29;20048;-78
2022/08/02 03:23:48;;;;;;;7.45;4.10;;;;;;;14.24;67.44;100693.59;10180257;29;20048;-78
2022/08/02 03:28:50;;;;;;;7.13;3.90;;;;;;;14.19;67.39;100682.38;10179264;29;20108;-77
2022/08/02 03:33:56;;;;;;;7.28;4.35;;;;;;;14.06;67.94;100701.53;10193475;29;20054;-77
2022/08/02 03:39:00;;;;;;;15.90;5.32;;;;;;;14.02;68.38;100693.88;10175059;29;20048;-78
2022/08/02 03:44:05;;;;;;;6.80;4.40;;;;;;;14.04;68.27;100698.13;10192151;29;20151;-77
2022/08/02 03:49:11;;;;;;;8.27;5.97;;;;;;;14.04;68.28;100690.03;10170812;29;20096;-77
2022/08/02 03:54:17;;;;;;;8.48;6.43;;;;;;;13.99;70.60;100688.72;10178888;29;20099;-77
2022/08/02 03:59:20;;;;;;;11.68;6.28;;;;;;;13.96;71.38;100683.59;10176368;29;20135;-77
2022/08/02 04:04:24;;;;;;;10.05;6.35;;;;;;;13.83;72.74;100673.91;10178936;29;20056;-77
2022/08/02 04:09:27;;;;;;;12.30;6.07;;;;;;;13.94;72.62;100681.06;10201486;29;20124;-77
2022/08/02 04:14:30;;;;;;;15.63;7.05;;;;;;;14.06;72.32;100688.03;10185431;29;20047;-76
2022/08/02 04:19:45;;;;;;;13.00;5.80;;;;;;;14.14;71.74;100692.72;10199640;29;20135;-78
2022/08/02 04:24:51;;;;;;;12.38;5.85;;;;;;;14.12;71.29;100697.41;10185797;29;20063;-78
2022/08/02 04:29:58;;;;;;;12.05;6.18;;;;;;;14.15;71.49;100706.13;10186235;29;20050;-78
2022/08/02 04:35:02;;;;;;;9.82;5.60;;;;;;;14.18;71.14;100707.69;10187269;29;20524;-78
2022/08/02 04:40:22;;;;;;;8.60;6.20;;;;;;;14.15;71.35;100695.31;10186244;29;20071;-78
2022/08/02 04:45:26;;;;;;;15.68;6.47;;;;;;;14.10;71.50;100694.88;10186369;29;20048;-78
2022/08/02 04:50:31;;;;;;;11.23;6.80;;;;;;;14.11;71.79;100693.88;10185584;29;20047;-78
2022/08/02 04:55:33;;;;;;;12.55;7.57;;;;;;;14.09;72.67;100703.09;10188617;29;20071;-77
2022/08/02 05:00:36;;;;;;;10.73;7.22;;;;;;;14.14;73.72;100700.84;10185392;29;20359;-78
2022/08/02 05:05:41;;;;;;;11.90;7.07;;;;;;;14.15;74.48;100705.25;10183391;29;20051;-78
2022/08/02 05:10:44;;;;;;;8.23;6.47;;;;;;;14.36;73.97;100716.78;10184550;29;20044;-78
2022/08/02 05:15:48;;;;;;;10.15;8.13;;;;;;;14.52;73.74;100713.56;10178147;29;20573;-78
2022/08/02 05:20:52;;;;;;;10.88;7.50;;;;;;;14.63;73.39;100707.16;10183592;29;20044;-78
2022/08/02 05:25:59;;;;;;;19.92;10.43;;;;;;;14.66;74.01;100706.03;10196610;29;20056;-77
2022/08/02 05:31:02;;;;;;;17.15;10.95;;;;;;;14.79;73.63;100714.69;10182557;29;20100;-78
2022/08/02 05:36:08;;;;;;;17.98;10.98;;;;;;;14.89;73.86;100703.84;10182883;29;20179;-77
2022/08/02 05:41:11;;;;;;;12.90;8.68;;;;;;;15.14;73.63;100694.25;10182574;29;20068;-78
2022/08/02 05:46:14;;;;;;;13.75;7.78;;;;;;;15.44;72.97;100698.59;10182772;29;20052;-76
2022/08/02 05:51:28;;;;;;;10.48;6.72;;;;;;;15.69;72.05;100703.34;10174224;29;20040;-76
2022/08/02 05:56:38;;;;;;;12.80;9.32;;;;;;;15.88;71.52;100707.81;10175094;29;20048;-77
2022/08/02 06:01:43;;;;;;;14.70;8.95;;;;;;;15.85;71.34;100715.38;10181661;29;20040;-77
2022/08/02 06:06:52;;;;;;;15.68;10.05;;;;;;;15.76;71.76;100713.59;10163903;29;20044;-77
2022/08/02 06:11:59;;;;;;;14.13;6.82;;;;;;;16.08;71.86;100718.53;10185328;29;20048;-78
2022/08/02 06:17:05;;;;;;;10.93;8.57;;;;;;;16.21;71.64;100710.03;10174297;29;20095;-77
2022/08/02 06:22:16;;;;;;;13.93;10.20;;;;;;;16.35;71.44;100717.69;10177733;29;20103;-76
2022/08/02 06:27:40;;;;;;;18.15;10.60;;;;;;;16.81;70.99;100731.97;10177158;29;20048;-77
2022/08/02 06:32:45;;;;;;;17.75;10.07;;;;;;;17.11;70.34;100724.41;10178899;29;20105;-77
2022/08/02 06:37:52;;;;;;;14.60;11.00;;;;;;;17.41;69.86;100712.25;10173338;29;20055;-78
2022/08/02 06:43:10;;;;;;;16.35;10.32;;;;;;;17.89;69.11;100708.91;10168361;29;20048;-76
2022/08/02 06:48:13;;;;;;;13.73;10.98;;;;;;;18.16;68.10;100708.88;10172018;29;20052;-76
2022/08/02 06:53:18;;;;;;;11.50;8.05;;;;;;;18.38;67.27;100691.91;10190495;29;20469;-78
2022/08/02 06:58:21;;;;;;;14.15;10.45;;;;;;;18.51;67.19;100689.56;10176147;29;20048;-75
2022/08/02 07:03:24;;;;;;;13.90;9.60;;;;;;;18.58;66.32;100687.00;10167548;29;20052;-77
2022/08/02 07:08:31;;;;;;;11.43;9.35;;;;;;;18.75;65.96;100680.53;10176133;29;20059;-77
2022/08/02 07:13:34;;;;;;;12.63;8.68;;;;;;;18.82;66.33;100679.91;10175513;29;20055;-77
2022/08/02 07:18:41;;;;;;;11.80;8.32;;;;;;;19.17;64.62;100671.34;10175061;29;20051;-76
2022/08/02 07:23:45;;;;;;;15.13;8.48;;;;;;;19.14;64.98;100682.56;10174077;29;20160;-77
2022/08/02 07:28:48;;;;;;;9.48;6.93;;;;;;;19.76;64.21;100690.03;10174995;29;20056;-78
2022/08/02 07:33:51;;;;;;;10.80;6.22;;;;;;;20.05;62.42;100694.84;10190797;29;20494;-78
2022/08/02 07:38:56;;;;;;;10.57;5.95;;;;;;;20.54;60.55;100688.22;10176227;29;20056;-77
2022/08/02 07:43:59;;;;;;;7.97;5.03;;;;;;;21.11;58.53;100670.53;10191629;29;20062;-78
2022/08/02 07:49:03;;;;;;;9.02;5.22;;;;;;;21.87;55.74;100669.28;10192668;29;20135;-78
2022/08/02 07:54:07;;;;;;;9.82;5.18;;;;;;;22.55;53.57;100672.59;10177858;29;20506;-78
2022/08/02 07:59:11;;;;;;;6.43;4.30;;;;;;;22.30;51.72;100663.88;10190095;29;20056;-78
2022/08/02 08:04:14;;;;;;;5.85;3.50;;;;;;;21.95;52.47;100662.03;10177256;29;20095;-78
2022/08/02 08:09:19;;;;;;;8.43;3.47;;;;;;;22.24;50.05;100670.16;10173273;29;20056;-78
2022/08/02 08:14:22;;;;;;;9.32;3.85;;;;;;;22.00;50.54;100665.03;10174704;29;20418;-77
2022/08/02 08:19:25;;;;;;;6.32;3.80;;;;;;;22.49;49.82;100661.56;10182651;29;20513;-79
2022/08/02 08:30:27;;;;;;;10.18;3.65;;;;;;;21.74;51.49;100660.03;12354329;23;20025;-80
2022/08/02 08:35:30;;;;;;;4.70;3.38;;;;;;;21.76;48.95;100649.81;10202673;29;20044;-81
2022/08/02 08:40:32;;;;;;;6.30;2.30;;;;;;;22.51;46.49;100648.53;10218826;29;20044;-81
2022/08/02 08:45:37;;;;;;;6.70;2.55;;;;;;;22.53;44.76;100641.81;10206699;29;20051;-80
2022/08/02 08:50:47;;;;;;;3.70;2.40;;;;;;;22.18;44.70;100640.81;10226613;29;20044;-79
2022/08/02 08:55:55;;;;;;;5.93;2.25;;;;;;;22.90;45.31;100639.81;10242075;29;20088;-80
2022/08/02 09:00:59;;;;;;;4.57;2.42;;;;;;;23.56;42.90;100639.38;10251117;29;20071;-78
2022/08/02 09:06:02;;;;;;;3.75;2.30;;;;;;;23.64;42.41;100641.09;10250839;29;20050;-78
2022/08/02 09:11:13;;;;;;;6.85;2.10;;;;;;;24.42;42.57;100632.50;10265449;29;20481;-79
2022/08/02 09:16:27;;;;;;;4.88;1.73;;;;;;;24.58;40.51;100637.59;10247868;29;20763;-78
2022/08/02 09:21:35;;;;;;;7.65;1.92;;;;;;;24.92;38.89;100630.16;10247681;29;20039;-78
2022/08/02 09:26:38;;;;;;;4.68;2.55;;;;;;;25.50;39.96;100629.41;10243168;29;20052;-78
2022/08/02 09:31:44;;;;;;;3.33;2.10;;;;;;;24.13;40.25;100640.00;10237584;29;20098;-78
2022/08/02 09:36:51;;;;;;;4.70;2.10;;;;;;;24.69;39.81;100633.38;10234259;29;20489;-78
2022/08/02 09:42:09;;;;;;;4.10;2.47;;;;;;;25.09;40.32;100636.94;10232533;29;20436;-78
2022/08/02 09:47:17;;;;;;;8.73;2.55;;;;;;;24.76;41.41;100615.81;10231021;29;20150;-78
2022/08/02 09:52:27;;;;;;;2.95;1.85;;;;;;;25.89;39.91;100609.19;10232674;29;20085;-78
2022/08/02 09:57:45;;;;;;;2.55;1.90;;;;;;;25.27;41.17;100617.03;10241895;29;20054;-78
2022/08/02 10:03:07;;;;;;;6.35;2.20;;;;;;;25.43;42.02;100614.88;10229670;29;20121;-78
2022/08/02 10:08:15;;;;;;;5.20;2.93;;;;;;;26.04;41.40;100617.13;10236035;29;20052;-78
2022/08/02 10:13:18;;;;;;;4.95;2.30;;;;;;;26.40;40.23;100619.22;10223078;29;20456;-78
2022/08/02 10:18:24;;;;;;;8.15;1.90;;;;;;;26.20;39.28;100619.34;10218764;29;20051;-78
2022/08/02 10:23:43;;;;;;;4.13;2.80;;;;;;;26.46;40.01;100609.22;10218527;29;20039;-78
2022/08/02 10:28:49;;;;;;;5.97;2.85;;;;;;;26.38;40.23;100613.09;10217751;29;20048;-78
2022/08/02 10:33:55;;;;;;;5.60;2.90;;;;;;;26.59;39.90;100609.13;10217170;29;20044;-78
2022/08/02 10:39:00;;;;;;;3.95;2.50;;;;;;;26.52;40.14;100606.44;10216765;29;20048;-78
2022/08/02 10:44:04;;;;;;;4.60;2.97;;;;;;;26.95;39.17;100600.13;10216603;29;20413;-78
2022/08/02 10:49:12;;;;;;;11.45;2.75;;;;;;;27.43;38.69;100606.84;10216876;29;20052;-79
2022/08/02 10:54:39;;;;;;;6.60;2.55;;;;;;;26.92;38.71;100600.56;10192054;29;20070;-78
2022/08/02 10:59:41;;;;;;;5.18;2.80;;;;;;;26.70;39.46;100602.03;10217757;29;20087;-78
2022/08/02 11:05:05;;;;;;;4.82;2.83;;;;;;;26.86;40.15;100587.72;10216282;29;20048;-78
2022/08/02 11:10:30;;;;;;;2.55;2.33;;;;;;;26.89;39.41;100592.75;10216240;29;20083;-78
2022/08/02 11:15:48;;;;;;;3.45;2.50;;;;;;;27.30;38.79;100588.50;10224275;29;20051;-77
2022/08/02 11:21:21;;;;;;;3.10;2.28;;;;;;;27.99;37.36;100585.53;10232898;29;20099;-78
2022/08/02 11:26:46;;;;;;;2.13;2.00;;;;;;;27.08;39.20;100573.50;10165663;29;20064;-78
2022/08/02 11:31:48;;;;;;;3.40;2.03;;;;;;;27.54;38.46;100575.72;10220504;29;20048;-78
2022/08/02 11:36:53;;;;;;;3.00;2.13;;;;;;;27.80;38.13;100590.22;10223290;29;20107;-78
2022/08/02 11:41:58;;;;;;;2.42;2.22;;;;;;;27.49;38.07;100563.69;10238070;29;20079;-78
2022/08/02 11:47:02;;;;;;;3.22;2.05;;;;;;;27.84;37.58;100572.97;10223469;29;20043;-78
2022/08/02 11:52:09;;;;;;;4.68;2.83;;;;;;;27.17;38.26;100569.34;10222277;29;20157;-77
2022/08/02 11:57:15;;;;;;;4.20;2.35;;;;;;;28.28;36.61;100568.06;10221012;29;20052;-77
2022/08/02 12:02:23;;;;;;;2.58;2.00;;;;;;;28.23;37.15;100564.34;10215697;29;20127;-79
2022/08/02 12:07:29;;;;;;;2.90;2.58;;;;;;;28.77;36.24;100565.13;10216395;29;20048;-79
2022/08/02 12:12:48;;;;;;;4.47;1.88;;;;;;;28.88;36.59;100550.47;10212360;29;20051;-79
2022/08/02 12:23:12;;;;;;;1.83;1.73;;;;;;;29.11;35.66;100546.00;10195093;29;20054;-79
2022/08/02 12:28:17;;;;;;;3.53;1.75;;;;;;;29.43;35.54;100534.47;10219865;29;20126;-79
2022/08/02 12:33:21;;;;;;;2.15;2.00;;;;;;;27.43;37.76;100550.81;10223103;29;20091;-79
2022/08/02 12:38:25;;;;;;;3.50;2.08;;;;;;;27.06;38.62;100546.16;10220567;29;20047;-79
2022/08/02 12:43:28;;;;;;;5.30;2.17;;;;;;;28.96;36.05;100531.81;10221737;29;20040;-79
2022/08/02 12:48:33;;;;;;;2.55;2.03;;;;;;;28.80;35.89;100530.63;10221731;29;20059;-78
2022/08/02 12:53:42;;;;;;;2.50;1.80;;;;;;;30.47;33.56;100520.31;10221991;29;20449;-78
2022/08/02 12:58:49;;;;;;;2.70;2.25;;;;;;;29.81;34.51;100515.34;10220976;29;20504;-79
2022/08/02 13:03:52;;;;;;;2.08;1.45;;;;;;;28.76;35.75;100513.69;10221380;29;20054;-79
2022/08/02 13:09:17;;;;;;;2.88;2.00;;;;;;;29.80;34.94;100501.72;10204398;29;20043;-78
2022/08/02 13:14:20;;;;;;;4.38;2.50;;;;;;;29.42;34.71;100489.38;10214354;29;20040;-77
2022/08/02 13:19:22;;;;;;;3.35;2.95;;;;;;;29.75;34.29;100496.94;10221445;29;20047;-79
2022/08/02 13:24:27;;;;;;;2.70;2.22;;;;;;;30.09;33.57;100491.44;10221130;29;20043;-78
2022/08/02 13:29:42;;;;;;;2.20;2.00;;;;;;;29.17;35.48;100498.00;10215530;29;20122;-79
2022/08/02 13:34:45;;;;;;;3.05;2.17;;;;;;;29.01;35.84;100483.00;10220178;29;20050;-78
2022/08/02 13:39:49;;;;;;;5.20;2.50;;;;;;;29.02;34.30;100472.75;10234444;28;20448;-79
2022/08/02 13:45:12;;;;;;;3.03;2.10;;;;;;;28.51;35.13;100478.00;10198168;29;20096;-79
2022/08/02 13:50:16;;;;;;;2.58;2.30;;;;;;;29.38;34.68;100466.91;10212772;29;20094;-79
2022/08/02 13:55:21;;;;;;;4.28;1.98;;;;;;;29.10;35.02;100461.34;10213774;29;20091;-78
2022/08/02 14:00:24;;;;;;;2.03;1.90;;;;;;;28.84;34.41;100455.28;10216368;29;20052;-79
2022/08/02 14:05:39;;;;;;;3.50;1.95;;;;;;;29.66;33.99;100447.78;10219033;29;20122;-80
2022/08/02 14:10:52;;;;;;;4.65;2.10;;;;;;;30.23;32.38;100437.41;10219126;29;20066;-80
2022/08/02 14:15:55;;;;;;;4.18;2.13;;;;;;;29.89;32.50;100444.84;10226723;29;20059;-79
2022/08/02 14:20:58;;;;;;;2.03;1.70;;;;;;;29.98;32.02;100445.28;10222967;29;20051;-80
2022/08/02 14:26:04;;;;;;;1.88;1.75;;;;;;;30.34;32.43;100435.63;10220505;29;20314;-80
2022/08/02 14:31:07;;;;;;;7.50;2.05;;;;;;;29.98;32.52;100437.00;10236632;29;20087;-79
2022/08/02 14:36:13;;;;;;;2.72;2.10;;;;;;;29.97;32.56;100430.59;10186210;29;20047;-78
2022/08/02 14:41:17;;;;;;;2.55;2.08;;;;;;;30.16;32.87;100422.88;10207377;29;20054;-77
2022/08/02 14:46:20;;;;;;;2.72;1.98;;;;;;;30.27;32.34;100417.50;10212282;29;20051;-77
2022/08/02 14:51:23;;;;;;;3.28;1.70;;;;;;;29.10;34.33;100423.50;10227622;29;20054;-79
2022/08/02 14:56:27;;;;;;;3.60;1.95;;;;;;;29.31;33.92;100410.03;10239713;29;20055;-80
2022/08/02 15:01:31;;;;;;;3.03;2.70;;;;;;;28.92;34.90;100412.59;10223631;29;20074;-78
2022/08/02 15:06:34;;;;;;;5.28;2.13;;;;;;;29.14;34.31;100415.53;10219725;29;20052;-79
2022/08/02 15:11:38;;;;;;;2.40;2.20;;;;;;;29.09;34.51;100412.66;10220527;29;20461;-79
2022/08/02 15:16:50;;;;;;;2.55;2.20;;;;;;;30.51;33.21;100398.72;10217559;29;20063;-79
2022/08/02 15:22:01;;;;;;;2.60;1.80;;;;;;;30.69;32.57;100404.81;10216285;29;20046;-78
2022/08/02 15:27:16;;;;;;;6.35;2.30;;;;;;;30.24;33.83;100386.44;10216949;29;20453;-79
2022/08/02 15:32:20;;;;;;;5.05;2.65;;;;;;;30.12;33.86;100382.94;10214377;29;20417;-79
2022/08/02 15:37:22;;;;;;;3.25;2.60;;;;;;;30.31;33.36;100386.28;10218573;29;20068;-79
2022/08/02 15:42:28;;;;;;;4.68;2.25;;;;;;;30.29;33.60;100387.63;10216452;29;20055;-78
2022/08/02 15:47:32;;;;;;;2.55;2.35;;;;;;;29.95;34.10;100373.78;10217577;29;20103;-79
2022/08/02 15:52:35;;;;;;;2.85;2.63;;;;;;;29.66;34.65;100376.66;10216217;29;20055;-78
2022/08/02 15:57:40;;;;;;;4.88;2.80;;;;;;;29.07;34.92;100376.13;10212043;29;20051;-78
2022/08/02 16:02:43;;;;;;;5.32;2.45;;;;;;;30.05;34.75;100379.47;10221664;29;20114;-78
2022/08/02 16:14:37;;;;;;;2.80;2.40;;;;;;;30.22;34.23;100368.41;10227631;29;20123;-77
2022/08/02 16:19:39;;;;;;;3.45;2.40;;;;;;;29.47;34.71;100364.97;10229466;29;20048;-79
2022/08/02 16:24:51;;;;;;;3.55;2.58;;;;;;;29.69;34.79;100372.56;10240916;29;20111;-79
2022/08/02 16:29:55;;;;;;;3.67;2.53;;;;;;;30.10;34.61;100362.94;10227080;29;20094;-76
2022/08/02 16:34:58;;;;;;;2.55;2.35;;;;;;;30.36;34.56;100360.56;10221873;29;20390;-76
2022/08/02 16:40:12;;;;;;;3.70;2.40;;;;;;;30.80;33.46;100350.34;10223118;29;20043;-77
2022/08/02 16:45:16;;;;;;;3.35;2.55;;;;;;;29.72;34.18;100355.44;10220765;29;20040;-77
2022/08/02 16:50:22;;;;;;;2.83;2.22;;;;;;;29.05;35.63;100348.72;10222417;29;20051;-78
2022/08/02 16:55:30;;;;;;;5.50;2.50;;;;;;;29.07;35.32;100348.47;10223730;29;20047;-78
2022/08/02 17:00:35;;;;;;;3.70;2.15;;;;;;;29.82;35.27;100337.06;10223911;29;20047;-78
2022/08/02 17:05:39;;;;;;;3.40;2.30;;;;;;;29.24;35.74;100348.53;10223827;29;20048;-78
2022/08/02 17:10:59;;;;;;;2.78;2.40;;;;;;;28.54;36.40;100333.06;10220199;29;20722;-78
2022/08/02 17:16:07;;;;;;;3.28;2.75;;;;;;;27.27;38.65;100329.78;10219359;29;20091;-78
2022/08/02 17:21:27;;;;;;;3.22;2.53;;;;;;;27.75;38.16;100326.00;10222723;29;20050;-78
2022/08/02 17:26:30;;;;;;;2.60;2.40;;;;;;;28.27;37.73;100319.75;10221829;29;20040;-77
2022/08/02 17:31:35;;;;;;;3.33;2.53;;;;;;;28.55;37.19;100315.38;10218943;29;20577;-78
2022/08/02 17:36:48;;;;;;;5.28;2.38;;;;;;;33.21;31.07;100311.06;10217986;29;20044;-76
2022/08/02 17:41:52;;;;;;;3.25;2.30;;;;;;;31.38;32.29;100310.97;10213615;29;20048;-77
2022/08/02 17:46:56;;;;;;;3.65;1.90;;;;;;;30.89;33.22;100307.19;10222227;29;20044;-77
2022/08/02 17:52:00;;;;;;;2.10;1.90;;;;;;;31.24;32.57;100302.25;10222685;29;20536;-76
2022/08/02 17:57:23;;;;;;;2.40;2.15;;;;;;;30.52;32.97;100306.16;10221062;29;20048;-77
2022/08/02 18:02:47;;;;;;;6.00;2.22;;;;;;;30.14;34.19;100311.53;10220709;29;20075;-77
2022/08/02 18:07:56;;;;;;;2.88;2.00;;;;;;;30.40;33.44;100309.91;10219442;29;20382;-76
2022/08/02 18:13:04;;;;;;;2.92;2.15;;;;;;;28.93;35.67;100303.69;10220166;29;20052;-76
2022/08/02 18:18:08;;;;;;;2.60;1.92;;;;;;;27.83;37.85;100305.50;10222902;29;20055;-78
2022/08/02 18:23:11;;;;;;;3.47;2.28;;;;;;;27.39;38.29;100313.25;10238042;29;20062;-77
2022/08/02 18:28:15;;;;;;;3.05;1.80;;;;;;;27.13;38.79;100311.75;10249391;29;20047;-78
2022/08/02 18:33:20;;;;;;;2.30;1.70;;;;;;;27.11;38.74;100302.88;10229133;29;20047;-77
2022/08/02 18:38:43;;;;;;;3.85;2.10;;;;;;;26.64;39.14;100311.78;10223575;29;20083;-77
2022/08/02 18:43:48;;;;;;;2.95;2.15;;;;;;;26.66;39.14;100315.16;10241613;29;20059;-77
2022/08/02 18:48:53;;;;;;;3.03;1.95;;;;;;;26.62;39.28;100318.59;10225141;29;20161;-78
2022/08/02 18:53:57;;;;;;;3.05;2.03;;;;;;;26.55;39.35;100323.34;10238935;29;20059;-77
2022/08/02 18:59:01;;;;;;;3.92;2.38;;;;;;;26.36;40.08;100328.88;10224240;29;20047;-78
2022/08/02 19:04:06;;;;;;;2.63;2.42;;;;;;;26.25;40.52;100333.25;10217774;29;20541;-77
2022/08/02 19:09:10;;;;;;;2.80;2.28;;;;;;;26.04;42.38;100331.75;10211801;29;20457;-77
2022/08/02 19:14:15;;;;;;;3.00;2.05;;;;;;;25.78;42.22;100330.13;10217262;29;20044;-77
2022/08/02 19:19:31;;;;;;;2.45;2.15;;;;;;;25.68;42.65;100337.19;10220914;29;20048;-79
2022/08/02 19:24:35;;;;;;;3.63;2.72;;;;;;;25.49;43.63;100350.84;10218938;29;20079;-79
2022/08/02 19:29:39;;;;;;;3.72;2.10;;;;;;;25.14;43.63;100350.47;10222216;29;20066;-78
2022/08/02 19:35:03;;;;;;;2.35;2.10;;;;;;;24.96;44.42;100353.94;10220543;29;20043;-79
2022/08/02 19:40:26;;;;;;;7.05;2.42;;;;;;;24.92;44.06;100352.69;10222132;29;20409;-79
2022/08/02 19:45:31;;;;;;;8.75;3.42;;;;;;;24.92;44.15;100359.00;10218817;29;20036;-78
2022/08/02 19:50:55;;;;;;;3.40;3.10;;;;;;;24.90;44.56;100354.81;10214373;29;20059;-78
2022/08/02 19:56:03;;;;;;;8.40;3.15;;;;;;;24.84;45.11;100370.25;10216509;29;20039;-78
2022/08/02 20:01:08;;;;;;;3.00;2.72;;;;;;;24.78;45.67;100365.66;10236274;29;20056;-79
2022/08/02 20:06:19;;;;;;;3.17;2.87;;;;;;;24.78;45.31;100368.38;10228214;29;20103;-79
2022/08/02 20:11:42;;;;;;;4.82;2.83;;;;;;;24.70;45.45;100363.16;10225003;29;20107;-79
2022/08/02 20:16:45;;;;;;;3.20;2.67;;;;;;;24.61;45.42;100369.97;10225820;29;20048;-79
2022/08/02 20:21:53;;;;;;;5.40;3.08;;;;;;;24.59;45.50;100366.56;10220938;29;20062;-78
2022/08/02 20:27:02;;;;;;;4.88;2.70;;;;;;;24.51;46.47;100370.41;10224490;29;20078;-79
2022/08/02 20:32:05;;;;;;;4.20;2.33;;;;;;;24.40;46.27;100374.66;10230469;29;20040;-80
2022/08/02 20:37:11;;;;;;;3.15;2.58;;;;;;;24.31;46.81;100365.78;10230417;29;20040;-79
2022/08/02 20:42:34;;;;;;;5.45;2.53;;;;;;;24.25;47.06;100379.53;10222548;29;20058;-78
2022/08/02 20:47:37;;;;;;;2.95;2.60;;;;;;;24.22;46.81;100385.47;10220343;29;20512;-79
2022/08/02 20:52:42;;;;;;;3.33;2.72;;;;;;;24.07;47.03;100375.53;10230130;29;20556;-78
2022/08/02 20:57:46;;;;;;;9.07;2.80;;;;;;;23.93;47.73;100378.53;10235588;29;20566;-78
2022/08/02 21:03:04;;;;;;;4.22;2.60;;;;;;;23.89;48.17;100375.38;10229436;29;20044;-78
2022/08/02 21:08:12;;;;;;;2.80;2.60;;;;;;;23.81;48.57;100372.84;10234676;29;20039;-78
2022/08/02 21:13:35;;;;;;;3.60;2.70;;;;;;;23.74;49.38;100370.06;10224292;29;20046;-78
2022/08/02 21:18:50;;;;;;;3.28;2.85;;;;;;;23.63;49.65;100368.81;10220367;29;20174;-77
2022/08/02 21:23:54;;;;;;;4.00;3.05;;;;;;;23.52;50.18;100371.34;10216513;29;20051;-77
2022/08/02 21:28:57;;;;;;;3.45;3.15;;;;;;;23.39;50.24;100372.16;10216263;29;20047;-77
2022/08/02 21:34:02;;;;;;;3.40;3.10;;;;;;;23.28;50.62;100365.41;10216425;29;20117;-77
2022/08/02 21:39:25;;;;;;;4.47;2.97;;;;;;;23.11;51.34;100367.69;10216176;29;20071;-77
2022/08/02 21:44:29;;;;;;;3.33;2.65;;;;;;;22.99;51.22;100374.81;10221964;29;20121;-78
2022/08/02 21:49:31;;;;;;;4.07;3.30;;;;;;;22.95;51.58;100368.88;10232432;29;20085;-77
2022/08/02 21:54:56;;;;;;;4.85;3.60;;;;;;;22.89;52.17;100377.09;10223224;29;20052;-78
2022/08/02 22:00:00;;;;;;;4.18;3.75;;;;;;;22.74;52.63;100369.03;10218836;29;20071;-77
2022/08/02 22:05:02;;;;;;;6.28;4.15;;;;;;;22.70;52.52;100370.47;10218874;29;20048;-76
2022/08/02 22:10:08;;;;;;;4.78;4.30;;;;;;;22.67;52.63;100379.09;10220641;29;20051;-78
2022/08/02 22:15:12;;;;;;;6.95;4.78;;;;;;;22.61;52.39;100388.97;10219430;29;20051;-76
2022/08/02 22:20:16;;;;;;;6.00;4.13;;;;;;;22.55;52.82;100389.81;10220482;29;20465;-78
2022/08/02 22:25:23;;;;;;;8.13;4.32;;;;;;;22.38;53.39;100391.13;10220972;29;20549;-80
2022/08/02 22:30:39;;;;;;;6.07;5.20;;;;;;;22.24;54.35;100402.03;10218474;29;20052;-79
2022/08/02 22:35:42;;;;;;;8.70;5.35;;;;;;;22.06;55.48;100401.69;10220994;29;20067;-80
2022/08/02 22:40:48;;;;;;;10.13;5.63;;;;;;;21.84;56.26;100393.53;10222231;29;20074;-80
2022/08/02 22:45:51;;;;;;;8.07;6.00;;;;;;;21.76;56.21;100399.13;10218530;29;20079;-79
2022/08/02 22:50:53;;;;;;;6.63;5.50;;;;;;;21.74;56.42;100400.34;10224392;29;20514;-78
2022/08/02 22:55:58;;;;;;;5.55;5.13;;;;;;;21.77;56.20;100405.44;10229014;29;20046;-79
2022/08/02 23:01:01;;;;;;;7.00;5.28;;;;;;;21.70;56.64;100394.44;10229295;29;20600;-79
2022/08/02 23:06:05;;;;;;;9.00;5.57;;;;;;;21.74;56.48;100394.88;10224026;29;20050;-78
2022/08/02 23:11:09;;;;;;;6.70;5.93;;;;;;;21.72;56.82;100397.81;10229313;29;20146;-79
2022/08/02 23:21:33;;;;;;;7.63;6.35;;;;;;;21.61;57.20;100395.59;10222545;29;20091;-78
2022/08/02 23:26:57;;;;;;;8.43;6.43;;;;;;;21.38;58.21;100402.13;10223277;29;20134;-77
2022/08/02 23:32:00;;;;;;;10.02;6.90;;;;;;;21.20;59.14;100401.69;10226816;29;20075;-78
2022/08/02 23:37:03;;;;;;;8.73;6.95;;;;;;;21.15;59.13;100396.00;10226988;29;20074;-78
2022/08/02 23:42:08;;;;;;;9.38;6.60;;;;;;;21.17;59.31;100400.22;10214424;29;20074;-77
2022/08/02 23:47:11;;;;;;;7.57;6.85;;;;;;;21.09;59.36;100389.44;10218614;29;20044;-79
2022/08/02 23:52:14;;;;;;;7.68;6.70;;;;;;;20.93;60.18;100397.81;10233720;29;20082;-79
2022/08/02 23:57:18;;;;;;;10.18;6.95;;;;;;;20.88;60.23;100394.81;10224901;29;20051;-78
